Time;durP1;ratioP1;P1;durP2;ratioP2;P2;SDS_P1;SDS_P2;PMS_P1;PMS_P2;Temp;Humidity;BMP_temperature;BMP_pressure;BME280_temperature;BME280_humidity;BME280_pressure;Samples;Min_cycle;Max_cycle;Signal;HPM_P1;HPM_P2
2024/01/06 00:01:22;;;;;;;23.83;20.97;;;4.90;99.90;;;;;;5055112;28;20188;-61
2024/01/06 00:03:47;;;;;;;22.50;19.60;;;4.90;99.90;;;;;;5052079;28;20546;-53
2024/01/06 00:06:13;;;;;;;23.90;20.23;;;4.90;99.90;;;;;;5051399;28;20238;-56
2024/01/06 00:08:39;;;;;;;25.45;21.63;;;4.80;99.90;;;;;;5054804;28;20821;-50
2024/01/06 00:11:05;;;;;;;23.53;21.13;;;4.70;99.90;;;;;;5051883;28;20178;-57
2024/01/06 00:13:30;;;;;;;23.23;20.93;;;4.70;99.90;;;;;;5052487;28;20339;-55
2024/01/06 00:15:56;;;;;;;23.67;21.17;;;4.70;99.90;;;;;;5053393;28;20517;-55
2024/01/06 00:18:22;;;;;;;23.53;21.13;;;4.70;99.90;;;;;;5023749;28;20197;-53
2024/01/06 00:20:48;;;;;;;23.65;21.25;;;4.60;99.90;;;;;;5044497;28;20199;-46
2024/01/06 00:23:13;;;;;;;23.43;20.93;;;4.60;99.90;;;;;;5050590;28;20224;-59
2024/01/06 00:25:39;;;;;;;22.73;20.63;;;4.60;99.90;;;;;;5049768;28;20200;-56
2024/01/06 00:28:05;;;;;;;25.00;21.27;;;4.60;99.90;;;;;;5052130;28;20221;-53
2024/01/06 00:30:30;;;;;;;24.97;21.10;;;4.50;99.90;;;;;;5032078;28;20276;-59
2024/01/06 00:32:56;;;;;;;24.30;21.13;;;4.40;99.90;;;;;;5047898;28;20197;-56
2024/01/06 00:35:21;;;;;;;23.23;20.83;;;4.50;99.90;;;;;;5056867;28;20181;-55
2024/01/06 00:37:47;;;;;;;23.77;21.37;;;4.40;99.90;;;;;;5052917;28;20193;-56
2024/01/06 00:40:13;;;;;;;23.47;20.93;;;4.40;99.90;;;;;;5058122;28;20212;-54
2024/01/06 00:42:38;;;;;;;22.80;20.50;;;4.40;99.90;;;;;;5055654;28;20185;-54
2024/01/06 00:45:05;;;;;;;24.90;21.30;;;4.30;99.90;;;;;;5052037;28;20548;-53
2024/01/06 00:47:31;;;;;;;27.77;21.90;;;4.40;99.90;;;;;;5044974;28;20235;-55
2024/01/06 00:49:56;;;;;;;26.50;21.90;;;4.30;99.90;;;;;;5055659;28;20672;-52
2024/01/06 00:52:22;;;;;;;26.97;21.67;;;4.30;99.90;;;;;;5046933;28;20212;-53
2024/01/06 00:54:48;;;;;;;24.20;21.50;;;4.30;99.90;;;;;;5057693;28;20193;-54
2024/01/06 00:57:13;;;;;;;25.33;21.50;;;4.30;99.90;;;;;;5043762;28;21313;-55
2024/01/06 00:59:39;;;;;;;28.53;22.40;;;4.20;99.90;;;;;;5052653;28;20546;-50
2024/01/06 01:02:04;;;;;;;24.20;21.03;;;4.10;99.90;;;;;;5050059;28;20220;-55
2024/01/06 01:04:30;;;;;;;25.97;21.70;;;4.10;99.90;;;;;;5050032;28;20300;-53
2024/01/06 01:06:55;;;;;;;26.80;21.40;;;4.10;99.90;;;;;;5048696;28;20581;-57
2024/01/06 01:09:21;;;;;;;25.80;20.90;;;4.00;99.90;;;;;;5053599;28;20182;-55
2024/01/06 01:11:47;;;;;;;25.73;22.10;;;4.00;99.90;;;;;;5054865;28;20188;-55
2024/01/06 01:14:12;;;;;;;24.50;22.00;;;3.90;99.90;;;;;;5057746;28;20192;-52
2024/01/06 01:16:38;;;;;;;25.40;22.00;;;3.90;99.90;;;;;;5053879;28;20178;-58
2024/01/06 01:19:03;;;;;;;24.10;21.53;;;3.90;99.90;;;;;;5056257;28;20946;-55
2024/01/06 01:21:29;;;;;;;24.37;21.60;;;3.90;99.90;;;;;;5053527;28;20238;-55
2024/01/06 01:23:54;;;;;;;24.73;20.47;;;3.80;99.90;;;;;;5053976;28;21137;-44
2024/01/06 01:26:20;;;;;;;26.23;22.30;;;3.80;99.90;;;;;;5060731;28;20188;-54
2024/01/06 01:28:46;;;;;;;25.13;22.30;;;3.90;99.90;;;;;;5051319;28;20181;-52
2024/01/06 01:31:13;;;;;;;25.60;22.77;;;3.80;99.90;;;;;;5058138;28;20640;-55
2024/01/06 01:33:38;;;;;;;27.50;23.05;;;3.80;99.90;;;;;;5051309;28;20174;-53
2024/01/06 01:36:04;;;;;;;24.07;21.63;;;3.70;99.90;;;;;;5052976;28;20243;-49
2024/01/06 01:38:30;;;;;;;29.17;23.00;;;3.70;99.90;;;;;;5048572;28;20292;-48
2024/01/06 01:40:55;;;;;;;24.90;22.30;;;3.80;99.90;;;;;;5054648;28;20185;-52
2024/01/06 01:43:23;;;;;;;26.00;23.33;;;3.80;99.90;;;;;;5047426;28;20213;-52
2024/01/06 01:45:52;;;;;;;27.48;23.40;;;3.80;99.90;;;;;;5049053;28;20213;-55
2024/01/06 01:48:22;;;;;;;28.40;21.70;;;3.90;99.90;;;;;;5049666;28;20193;-48
2024/01/06 01:50:48;;;;;;;24.63;21.38;;;3.90;99.90;;;;;;5055687;28;20639;-53
2024/01/06 01:53:14;;;;;;;28.05;22.67;;;3.90;99.90;;;;;;5055320;28;20558;-54
2024/01/06 01:55:44;;;;;;;27.50;22.40;;;3.90;99.90;;;;;;5060741;28;20181;-53
2024/01/06 01:58:11;;;;;;;24.67;22.00;;;4.00;99.90;;;;;;5052628;28;20741;-49
2024/01/06 02:00:37;;;;;;;28.77;22.63;;;4.00;99.90;;;;;;5059394;28;20254;-55
2024/01/06 02:03:04;;;;;;;24.47;21.67;;;4.00;99.90;;;;;;5051187;28;20173;-55
2024/01/06 02:05:30;;;;;;;28.77;22.38;;;3.90;99.90;;;;;;5058405;28;20867;-53
2024/01/06 02:07:56;;;;;;;27.87;24.03;;;3.90;99.90;;;;;;5046679;28;20186;-55
2024/01/06 02:10:22;;;;;;;26.23;23.20;;;3.90;99.90;;;;;;5057282;28;20434;-53
2024/01/06 02:12:48;;;;;;;26.83;23.80;;;3.80;99.90;;;;;;5056238;28;20262;-56
2024/01/06 02:15:14;;;;;;;25.75;22.35;;;3.80;99.90;;;;;;5057739;28;21009;-55
2024/01/06 02:17:40;;;;;;;24.93;22.33;;;3.80;99.90;;;;;;5052264;28;20193;-56
2024/01/06 02:20:07;;;;;;;30.40;24.40;;;3.70;99.90;;;;;;5052573;28;20710;-53
2024/01/06 02:22:36;;;;;;;31.42;22.90;;;3.80;99.90;;;;;;5048338;28;20189;-56
2024/01/06 02:25:02;;;;;;;27.02;23.48;;;3.70;99.90;;;;;;5054597;28;20612;-50
2024/01/06 02:27:28;;;;;;;28.20;23.50;;;3.70;99.90;;;;;;5044736;28;20270;-53
2024/01/06 02:29:53;;;;;;;25.33;22.63;;;3.70;99.90;;;;;;5055058;28;20266;-53
2024/01/06 02:32:19;;;;;;;30.67;23.57;;;3.70;99.90;;;;;;5045835;28;20620;-49
2024/01/06 02:34:45;;;;;;;26.10;23.30;;;3.60;99.90;;;;;;5055470;28;20197;-56
2024/01/06 02:37:10;;;;;;;25.47;22.80;;;3.60;99.90;;;;;;5053266;28;20188;-49
2024/01/06 02:39:36;;;;;;;26.80;23.53;;;3.60;99.90;;;;;;5055050;28;20674;-55
2024/01/06 02:42:01;;;;;;;26.90;21.80;;;3.60;99.90;;;;;;5053318;28;20181;-48
2024/01/06 02:44:27;;;;;;;25.27;21.97;;;3.50;99.90;;;;;;5047128;28;20582;-49
2024/01/06 02:46:54;;;;;;;27.47;22.63;;;3.50;99.90;;;;;;5054575;28;20197;-54
2024/01/06 02:49:19;;;;;;;25.75;22.95;;;3.50;99.90;;;;;;5046085;28;20209;-52
2024/01/06 02:51:45;;;;;;;25.80;22.90;;;3.50;99.90;;;;;;5052800;28;20271;-53
2024/01/06 02:54:10;;;;;;;29.93;22.80;;;3.40;99.90;;;;;;5030574;28;20196;-50
2024/01/06 02:56:38;;;;;;;29.00;23.80;;;3.40;99.90;;;;;;5057577;28;20296;-48
2024/01/06 02:59:03;;;;;;;25.98;22.35;;;3.40;99.90;;;;;;5052078;28;20186;-55
2024/01/06 03:01:29;;;;;;;30.00;23.23;;;3.40;99.90;;;;;;5055054;28;20574;-55
2024/01/06 03:03:54;;;;;;;26.33;23.30;;;3.30;99.90;;;;;;5050047;28;20212;-55
2024/01/06 03:06:20;;;;;;;27.00;22.10;;;3.30;99.90;;;;;;5055262;28;20181;-49
2024/01/06 03:08:45;;;;;;;27.17;23.00;;;3.30;99.90;;;;;;5047896;28;20644;-51
2024/01/06 03:11:11;;;;;;;23.53;21.03;;;3.30;99.90;;;;;;5053110;28;20212;-56
2024/01/06 03:13:37;;;;;;;25.53;21.80;;;3.30;99.90;;;;;;5032900;28;20649;-46
2024/01/06 03:16:05;;;;;;;24.10;21.37;;;3.20;99.90;;;;;;5057664;28;20279;-55
2024/01/06 03:18:30;;;;;;;28.33;23.60;;;3.20;99.90;;;;;;5053049;28;20200;-52
2024/01/06 03:20:56;;;;;;;27.50;22.63;;;3.10;99.90;;;;;;5050459;28;20189;-55
2024/01/06 03:23:22;;;;;;;24.30;21.80;;;3.10;99.90;;;;;;5052657;28;20562;-56
2024/01/06 03:25:47;;;;;;;24.30;21.47;;;3.10;99.90;;;;;;5050991;28;20185;-55
2024/01/06 03:28:13;;;;;;;26.10;23.40;;;3.10;99.90;;;;;;5044767;28;20212;-56
2024/01/06 03:30:39;;;;;;;23.13;20.80;;;3.00;99.90;;;;;;5048626;28;20684;-53
2024/01/06 03:33:06;;;;;;;27.03;23.00;;;3.00;99.90;;;;;;5045817;28;20654;-45
2024/01/06 03:35:31;;;;;;;27.48;21.73;;;2.90;99.90;;;;;;5051150;28;20700;-50
2024/01/06 03:37:57;;;;;;;24.23;21.40;;;2.90;99.90;;;;;;5048965;28;20282;-47
2024/01/06 03:40:23;;;;;;;26.77;21.60;;;2.80;99.90;;;;;;5045896;28;20216;-37
2024/01/06 03:42:49;;;;;;;24.13;21.23;;;2.80;99.90;;;;;;5046533;28;20173;-37
2024/01/06 03:45:14;;;;;;;27.90;22.30;;;2.80;99.90;;;;;;5049410;28;20568;-38
2024/01/06 03:47:40;;;;;;;26.53;22.33;;;2.80;99.90;;;;;;5056957;28;20192;-39
2024/01/06 03:50:06;;;;;;;25.23;22.50;;;2.80;99.90;;;;;;5055163;28;20181;-37
2024/01/06 03:52:31;;;;;;;26.20;23.00;;;2.70;99.90;;;;;;5059265;28;20450;-37
2024/01/06 03:54:57;;;;;;;24.70;22.13;;;2.70;99.90;;;;;;5056887;28;20434;-37
2024/01/06 03:57:22;;;;;;;23.97;21.37;;;2.60;99.90;;;;;;5054067;28;20184;-37
2024/01/06 03:59:48;;;;;;;25.57;21.23;;;2.60;99.90;;;;;;5051957;28;20198;-37
2024/01/06 04:02:14;;;;;;;25.30;21.07;;;2.60;99.90;;;;;;5044686;28;20280;-38
2024/01/06 04:04:39;;;;;;;25.77;23.07;;;2.50;99.90;;;;;;5043962;28;20666;-38
2024/01/06 04:07:06;;;;;;;28.70;23.03;;;2.50;99.90;;;;;;5053391;28;20213;-37
2024/01/06 04:09:32;;;;;;;26.10;21.75;;;2.50;99.90;;;;;;5037289;28;20184;-37
2024/01/06 04:11:57;;;;;;;26.97;22.07;;;2.50;99.90;;;;;;5042507;28;20646;-37
2024/01/06 04:14:23;;;;;;;28.93;21.33;;;2.40;99.90;;;;;;5054236;28;20192;-38
2024/01/06 04:16:49;;;;;;;25.50;22.80;;;2.40;99.90;;;;;;5051047;28;20271;-38
2024/01/06 04:19:15;;;;;;;23.60;20.87;;;2.40;99.90;;;;;;5046831;28;20221;-37
2024/01/06 04:21:40;;;;;;;24.30;21.80;;;2.40;99.90;;;;;;5048678;28;20584;-38
2024/01/06 04:24:06;;;;;;;26.30;21.67;;;2.40;99.90;;;;;;5049428;28;20459;-39
2024/01/06 04:26:32;;;;;;;24.63;21.17;;;2.30;99.90;;;;;;5044264;28;20314;-37
2024/01/06 04:28:57;;;;;;;25.50;21.50;;;2.30;99.90;;;;;;5045988;28;20205;-37
2024/01/06 04:31:23;;;;;;;25.23;22.50;;;2.30;99.90;;;;;;5051581;28;20318;-38
2024/01/06 04:33:48;;;;;;;24.90;22.17;;;2.30;99.90;;;;;;5046464;28;20623;-37
2024/01/06 04:36:14;;;;;;;30.70;22.30;;;2.30;99.90;;;;;;5046032;28;20512;-37
2024/01/06 04:38:40;;;;;;;30.73;22.73;;;2.20;99.90;;;;;;5032810;28;20203;-38
2024/01/06 04:41:05;;;;;;;25.57;21.70;;;2.20;99.90;;;;;;5045179;28;21000;-38
2024/01/06 04:43:31;;;;;;;24.90;21.60;;;2.20;99.90;;;;;;5057627;28;20302;-37
2024/01/06 04:45:57;;;;;;;28.40;23.23;;;2.20;99.90;;;;;;5048332;28;20191;-38
2024/01/06 04:48:23;;;;;;;26.70;23.83;;;2.20;99.90;;;;;;5062194;28;20184;-37
2024/01/06 04:50:49;;;;;;;25.35;22.65;;;2.20;99.90;;;;;;5052991;28;20179;-38
2024/01/06 04:53:15;;;;;;;25.83;21.90;;;2.20;99.90;;;;;;5052020;28;20184;-37
2024/01/06 04:55:40;;;;;;;27.00;22.87;;;2.10;99.90;;;;;;5032043;28;20187;-37
2024/01/06 04:58:06;;;;;;;24.83;22.13;;;2.10;99.90;;;;;;5053693;28;20194;-37
2024/01/06 05:00:32;;;;;;;26.30;22.17;;;2.10;99.90;;;;;;5052437;28;20189;-37
2024/01/06 05:02:57;;;;;;;28.90;22.38;;;2.10;99.90;;;;;;5061699;28;20206;-38
2024/01/06 05:05:23;;;;;;;24.03;21.60;;;2.10;99.90;;;;;;5057382;28;20216;-37
2024/01/06 05:07:49;;;;;;;25.50;22.33;;;2.10;99.90;;;;;;5050778;28;20192;-39
2024/01/06 05:10:14;;;;;;;26.67;21.53;;;2.20;99.90;;;;;;5060385;28;20227;-37
2024/01/06 05:12:40;;;;;;;25.93;22.20;;;2.20;99.90;;;;;;5050725;28;20196;-39
2024/01/06 05:15:06;;;;;;;29.00;21.60;;;2.20;99.90;;;;;;5060290;28;20195;-37
2024/01/06 05:17:31;;;;;;;25.47;22.63;;;2.20;99.90;;;;;;5024694;28;20200;-37
2024/01/06 05:19:57;;;;;;;29.47;22.17;;;2.30;99.90;;;;;;5060590;28;21099;-38
2024/01/06 05:22:23;;;;;;;29.60;21.80;;;2.40;99.90;;;;;;5052921;28;20219;-37
2024/01/06 05:24:52;;;;;;;25.42;22.65;;;2.40;99.90;;;;;;5053121;28;20212;-41
2024/01/06 05:27:18;;;;;;;25.58;22.77;;;2.50;99.90;;;;;;5055158;28;20176;-38
2024/01/06 05:29:44;;;;;;;23.23;20.80;;;2.50;99.90;;;;;;5058331;28;20512;-55
2024/01/06 05:32:10;;;;;;;28.40;22.00;;;2.60;99.90;;;;;;5048769;28;20420;-49
2024/01/06 05:34:35;;;;;;;28.30;22.00;;;2.60;99.90;;;;;;5059775;28;20660;-53
2024/01/06 05:37:01;;;;;;;26.27;23.43;;;2.70;99.90;;;;;;5057963;28;21198;-49
2024/01/06 05:39:27;;;;;;;24.90;22.07;;;2.80;99.90;;;;;;5053579;28;20573;-55
2024/01/06 05:41:53;;;;;;;26.30;22.90;;;2.80;99.90;;;;;;5060300;28;20940;-56
2024/01/06 05:44:18;;;;;;;28.48;23.23;;;2.90;99.90;;;;;;5057075;28;20205;-51
2024/01/06 05:46:44;;;;;;;26.43;23.70;;;2.90;99.90;;;;;;5046405;28;20191;-50
2024/01/06 05:49:10;;;;;;;24.50;21.83;;;2.90;99.90;;;;;;5056125;28;20171;-55
2024/01/06 05:51:36;;;;;;;28.43;22.67;;;3.00;99.90;;;;;;5049143;28;20311;-54
2024/01/06 05:54:02;;;;;;;24.67;22.00;;;2.90;99.90;;;;;;5048552;28;20683;-51
2024/01/06 05:56:28;;;;;;;34.88;25.27;;;2.90;99.90;;;;;;5053694;28;20471;-53
2024/01/06 05:58:55;;;;;;;28.35;22.90;;;3.00;99.90;;;;;;5055621;28;20181;-55
2024/01/06 06:01:21;;;;;;;28.77;22.25;;;3.00;99.90;;;;;;5047834;28;20191;-55
2024/01/06 06:03:47;;;;;;;27.98;23.33;;;3.00;99.90;;;;;;5046702;28;20206;-48
2024/01/06 06:06:13;;;;;;;24.20;21.60;;;3.00;99.90;;;;;;5047830;28;20185;-54
2024/01/06 06:08:41;;;;;;;32.63;22.70;;;3.10;99.90;;;;;;5055734;28;20502;-55
2024/01/06 06:11:10;;;;;;;28.08;22.35;;;3.10;99.90;;;;;;5056019;28;20960;-54
2024/01/06 06:13:38;;;;;;;29.98;22.30;;;3.10;99.90;;;;;;5054486;28;20193;-52
2024/01/06 06:16:04;;;;;;;27.60;22.05;;;3.20;99.90;;;;;;5060367;28;20559;-56
2024/01/06 06:18:30;;;;;;;24.90;21.75;;;3.20;99.90;;;;;;5044097;28;20193;-51
2024/01/06 06:20:56;;;;;;;32.90;23.40;;;3.30;99.90;;;;;;5053230;28;21135;-53
2024/01/06 06:23:21;;;;;;;31.33;23.53;;;3.30;99.90;;;;;;5043352;28;20699;-50
2024/01/06 06:25:47;;;;;;;30.47;22.57;;;3.30;99.90;;;;;;5060382;28;20650;-50
2024/01/06 06:28:12;;;;;;;30.93;23.23;;;3.20;99.90;;;;;;5043598;28;20663;-53
2024/01/06 06:30:38;;;;;;;38.93;24.87;;;3.20;99.90;;;;;;5049425;28;20585;-52
2024/01/06 06:33:04;;;;;;;32.77;23.97;;;3.20;99.90;;;;;;5046826;28;20209;-56
2024/01/06 06:35:29;;;;;;;32.70;24.60;;;3.20;99.90;;;;;;5050238;28;20767;-45
2024/01/06 06:37:55;;;;;;;33.83;24.10;;;3.10;99.90;;;;;;5050778;28;20442;-50
2024/01/06 06:40:20;;;;;;;35.67;24.43;;;3.10;99.90;;;;;;5060399;28;20546;-55
2024/01/06 06:42:46;;;;;;;36.87;25.50;;;3.20;99.90;;;;;;5048508;28;20225;-55
2024/01/06 06:45:12;;;;;;;39.70;25.57;;;3.10;99.90;;;;;;5052397;28;20223;-54
2024/01/06 06:47:37;;;;;;;33.57;24.87;;;3.10;99.90;;;;;;5048926;28;20296;-53
2024/01/06 06:50:03;;;;;;;36.80;25.30;;;3.10;99.90;;;;;;5059391;28;20598;-52
2024/01/06 06:52:29;;;;;;;37.67;25.50;;;3.10;99.90;;;;;;5049804;28;20689;-54
2024/01/06 06:54:54;;;;;;;32.90;23.97;;;3.10;99.90;;;;;;5048619;28;20426;-44
2024/01/06 06:57:20;;;;;;;40.53;26.00;;;3.10;99.90;;;;;;5044408;28;20177;-47
2024/01/06 06:59:46;;;;;;;38.03;26.57;;;3.10;99.90;;;;;;5042326;28;20583;-49
2024/01/06 07:02:11;;;;;;;39.93;25.30;;;3.00;99.90;;;;;;5048026;28;20185;-55
2024/01/06 07:04:37;;;;;;;35.03;24.60;;;3.00;99.90;;;;;;5050030;28;20617;-54
2024/01/06 07:07:03;;;;;;;38.87;25.07;;;3.00;99.90;;;;;;5054391;28;20533;-47
2024/01/06 07:09:28;;;;;;;36.87;23.50;;;3.00;99.90;;;;;;5044589;28;20290;-51
2024/01/06 07:11:54;;;;;;;38.60;25.83;;;3.10;99.90;;;;;;5044752;28;20181;-54
2024/01/06 07:14:20;;;;;;;37.27;24.53;;;3.10;99.90;;;;;;5049725;28;20188;-53
2024/01/06 07:16:45;;;;;;;42.80;25.70;;;3.10;99.90;;;;;;5053965;28;20191;-52
2024/01/06 07:19:11;;;;;;;32.40;23.63;;;3.00;99.90;;;;;;5039210;28;20228;-52
2024/01/06 07:21:37;;;;;;;31.67;24.30;;;3.10;99.90;;;;;;5048280;28;20269;-53
2024/01/06 07:24:03;;;;;;;32.92;24.42;;;3.10;99.90;;;;;;5043076;28;20312;-56
2024/01/06 07:26:28;;;;;;;34.27;22.10;;;3.20;99.90;;;;;;5051479;28;20178;-54
2024/01/06 07:28:54;;;;;;;41.80;23.93;;;3.30;99.90;;;;;;5050489;28;20426;-54
2024/01/06 07:31:20;;;;;;;35.50;23.35;;;3.30;99.90;;;;;;5050285;28;20181;-49
2024/01/06 07:33:46;;;;;;;39.40;24.90;;;3.40;99.90;;;;;;5039597;28;20182;-52
2024/01/06 07:36:12;;;;;;;40.63;25.57;;;3.40;99.90;;;;;;5039852;28;20213;-53
2024/01/06 07:38:37;;;;;;;33.53;24.17;;;3.40;99.90;;;;;;5059540;28;20446;-44
2024/01/06 07:41:04;;;;;;;30.90;23.07;;;3.50;99.90;;;;;;5054694;28;20185;-53
2024/01/06 07:43:30;;;;;;;37.85;24.05;;;3.60;99.90;;;;;;5049636;28;20220;-54
2024/01/06 07:45:56;;;;;;;35.75;23.15;;;3.70;99.90;;;;;;5040849;28;20190;-38
2024/01/06 07:48:22;;;;;;;36.50;23.97;;;3.70;99.90;;;;;;5050990;28;20262;-37
2024/01/06 07:50:47;;;;;;;39.10;24.27;;;3.70;99.90;;;;;;5054052;28;20178;-39
2024/01/06 07:53:16;;;;;;;37.20;24.07;;;3.70;99.90;;;;;;5050693;28;20451;-36
2024/01/06 07:55:41;;;;;;;41.17;24.10;;;3.70;99.90;;;;;;5042170;28;20551;-38
2024/01/06 07:58:07;;;;;;;36.90;24.27;;;3.70;99.90;;;;;;5048509;28;20191;-38
2024/01/06 08:00:33;;;;;;;35.13;23.73;;;3.70;99.90;;;;;;5049436;28;20601;-38
2024/01/06 08:02:58;;;;;;;45.77;27.20;;;3.70;99.90;;;;;;5048172;28;20263;-37
2024/01/06 08:05:24;;;;;;;45.33;24.97;;;3.70;99.90;;;;;;5048122;28;20467;-37
2024/01/06 08:07:51;;;;;;;38.07;25.13;;;3.60;99.90;;;;;;5057107;28;20675;-53
2024/01/06 08:10:17;;;;;;;42.90;25.08;;;3.60;99.90;;;;;;5049190;28;20182;-52
2024/01/06 08:12:43;;;;;;;46.13;26.90;;;3.70;99.90;;;;;;5041483;28;20965;-49
2024/01/06 08:15:09;;;;;;;39.33;26.35;;;3.70;99.90;;;;;;5053518;28;20188;-52
2024/01/06 08:17:35;;;;;;;35.90;24.80;;;3.70;99.90;;;;;;5050388;28;20185;-55
2024/01/06 08:20:01;;;;;;;45.13;26.50;;;3.70;99.90;;;;;;5052447;28;20476;-55
2024/01/06 08:22:27;;;;;;;43.22;25.90;;;3.70;99.90;;;;;;5054592;28;20177;-43
2024/01/06 08:24:52;;;;;;;39.97;25.17;;;3.80;99.90;;;;;;5051127;28;20208;-54
2024/01/06 08:27:18;;;;;;;33.70;25.00;;;3.80;99.90;;;;;;5051482;28;20192;-53
2024/01/06 08:29:44;;;;;;;39.43;25.80;;;3.80;99.90;;;;;;5054601;28;20177;-55
2024/01/06 08:32:11;;;;;;;37.43;24.83;;;3.90;99.90;;;;;;5048707;28;21318;-55
2024/01/06 08:34:37;;;;;;;37.58;24.90;;;4.00;99.90;;;;;;5052006;28;20643;-54
2024/01/06 08:37:03;;;;;;;33.10;23.10;;;4.00;99.90;;;;;;5038470;28;20186;-51
2024/01/06 08:39:29;;;;;;;34.92;24.60;;;4.10;99.90;;;;;;5049767;28;20189;-48
2024/01/06 08:41:55;;;;;;;35.13;23.80;;;4.10;99.90;;;;;;5050529;28;20189;-54
2024/01/06 08:44:20;;;;;;;35.07;24.00;;;4.20;99.90;;;;;;5036182;28;20683;-56
2024/01/06 08:46:46;;;;;;;37.27;24.93;;;4.30;99.90;;;;;;5032814;28;20182;-55
2024/01/06 08:49:11;;;;;;;33.57;25.37;;;4.30;99.90;;;;;;5045389;28;20192;-55
2024/01/06 08:51:37;;;;;;;32.43;23.67;;;4.30;99.90;;;;;;5050660;28;20190;-47
2024/01/06 08:54:05;;;;;;;30.63;23.27;;;4.30;99.90;;;;;;5050178;28;20294;-53
2024/01/06 08:56:32;;;;;;;34.00;24.25;;;4.40;99.90;;;;;;5044500;28;20177;-45
2024/01/06 08:58:57;;;;;;;32.90;24.13;;;4.50;99.90;;;;;;5029983;28;20182;-54
2024/01/06 09:01:23;;;;;;;38.43;25.90;;;4.50;99.90;;;;;;5042147;28;21000;-52
2024/01/06 09:03:49;;;;;;;41.40;26.43;;;4.50;99.90;;;;;;5042207;28;20504;-54
2024/01/06 09:06:15;;;;;;;38.30;25.55;;;4.50;99.90;;;;;;5039936;28;20236;-56
2024/01/06 09:08:41;;;;;;;37.13;26.65;;;4.50;99.90;;;;;;5036898;28;20272;-55
2024/01/06 09:11:07;;;;;;;37.33;24.63;;;4.50;99.90;;;;;;5050709;28;20194;-50
2024/01/06 09:13:32;;;;;;;36.37;25.60;;;4.60;99.90;;;;;;5040756;28;20262;-54
2024/01/06 09:16:00;;;;;;;34.67;23.90;;;4.70;99.90;;;;;;5046772;28;20930;-48
2024/01/06 09:18:26;;;;;;;39.97;27.58;;;4.90;99.90;;;;;;5052681;28;20185;-54
2024/01/06 09:20:52;;;;;;;36.22;26.42;;;5.00;99.90;;;;;;5049099;28;20255;-54
2024/01/06 09:23:18;;;;;;;36.53;25.27;;;5.10;99.90;;;;;;5025513;28;20697;-54
2024/01/06 09:25:43;;;;;;;38.20;26.20;;;5.10;99.90;;;;;;5046109;28;20434;-38
2024/01/06 09:28:10;;;;;;;37.80;26.30;;;5.20;99.90;;;;;;5055546;28;20217;-38
2024/01/06 09:30:37;;;;;;;39.28;26.10;;;5.30;99.90;;;;;;5051146;28;20839;-39
2024/01/06 09:33:03;;;;;;;41.90;27.13;;;5.30;99.90;;;;;;5051215;28;20209;-38
2024/01/06 09:35:28;;;;;;;37.97;26.37;;;5.40;99.90;;;;;;5054449;28;20276;-39
2024/01/06 09:37:55;;;;;;;38.60;27.93;;;5.40;99.90;;;;;;5055561;28;21652;-37
2024/01/06 09:40:23;;;;;;;41.92;27.30;;;5.50;99.90;;;;;;5052868;28;20612;-38
2024/01/06 09:42:53;;;;;;;40.30;25.42;;;5.50;99.90;;;;;;5056107;28;20231;-38
2024/01/06 09:45:20;;;;;;;34.63;25.42;;;5.60;99.90;;;;;;5025706;28;20631;-40
2024/01/06 09:47:49;;;;;;;39.17;27.73;;;5.70;99.90;;;;;;5047642;28;20659;-38
2024/01/06 09:50:19;;;;;;;40.65;27.13;;;5.80;99.90;;;;;;5054646;28;20276;-38
2024/01/06 09:52:52;;;;;;;36.35;29.92;;;5.90;99.90;;;;;;5048913;28;20646;-39
2024/01/06 09:55:22;;;;;;;34.15;25.20;;;6.00;99.90;;;;;;5046733;28;20178;-38
2024/01/06 09:57:48;;;;;;;38.07;27.50;;;6.20;99.90;;;;;;5046958;28;20651;-38
2024/01/06 10:00:14;;;;;;;37.07;27.87;;;6.20;99.90;;;;;;5055877;28;20443;-38
2024/01/06 10:02:40;;;;;;;34.77;26.67;;;6.30;99.90;;;;;;5057006;28;20232;-42
2024/01/06 10:05:06;;;;;;;35.50;26.50;;;6.40;99.90;;;;;;5055798;28;20459;-40
2024/01/06 10:07:32;;;;;;;35.65;27.58;;;6.50;99.90;;;;;;5051337;28;20763;-38
2024/01/06 10:09:58;;;;;;;30.60;24.70;;;6.40;81.20;;;;;;5059875;28;20186;-37
2024/01/06 10:12:28;;;;;;;27.47;23.93;;;6.40;88.70;;;;;;5047645;28;20427;-39
2024/01/06 10:14:53;;;;;;;35.53;24.77;;;6.40;88.70;;;;;;5055083;28;20596;-38
2024/01/06 10:17:19;;;;;;;27.10;24.30;;;6.50;74.30;;;;;;5042963;28;20428;-39
2024/01/06 10:19:46;;;;;;;30.20;23.90;;;6.40;76.90;;;;;;5043064;28;20665;-38
2024/01/06 10:22:11;;;;;;;32.13;24.77;;;6.60;71.70;;;;;;5051166;28;20197;-41
2024/01/06 10:24:37;;;;;;;27.77;24.30;;;6.60;76.70;;;;;;5053698;28;20466;-38
2024/01/06 10:27:03;;;;;;;27.57;24.53;;;6.70;77.20;;;;;;5049090;28;20192;-43
2024/01/06 10:29:29;;;;;;;27.10;22.57;;;6.70;62.90;;;;;;5060033;28;20576;-38
2024/01/06 10:31:55;;;;;;;26.50;22.90;;;6.60;60.20;;;;;;5046257;28;20931;-37
2024/01/06 10:34:24;;;;;;;31.13;25.23;;;6.60;60.00;;;;;;5054719;28;20191;-52
2024/01/06 10:36:51;;;;;;;29.93;25.03;;;6.70;63.50;;;;;;5046450;28;20213;-50
2024/01/06 10:39:18;;;;;;;32.70;23.63;;;6.60;50.40;;;;;;5046821;28;20428;-51
2024/01/06 10:41:45;;;;;;;26.63;22.80;;;6.60;63.60;;;;;;5047238;28;20435;-53
2024/01/06 10:44:11;;;;;;;32.30;24.37;;;6.70;71.60;;;;;;5048512;28;20762;-57
2024/01/06 10:46:38;;;;;;;30.87;24.67;;;6.90;75.50;;;;;;5049800;28;21563;-38
2024/01/06 10:49:08;;;;;;;27.10;22.33;;;7.00;72.10;;;;;;5040173;28;20419;-37
2024/01/06 10:51:36;;;;;;;29.83;25.10;;;7.20;58.10;;;;;;5017563;28;20428;-37
2024/01/06 10:54:01;;;;;;;26.83;23.50;;;7.40;42.40;;;;;;5019879;28;20420;-38
2024/01/06 10:56:30;;;;;;;31.10;25.67;;;7.70;29.10;;;;;;5028197;28;20195;-37
2024/01/06 10:58:56;;;;;;;27.20;23.40;;;7.90;16.30;;;;;;5027841;28;20431;-39
2024/01/06 11:01:27;;;;;;;26.83;24.00;;;8.10;1.00;;;;;;5014126;28;20448;-37
2024/01/06 11:03:54;;;;;;;27.23;24.27;;;8.20;1.00;;;;;;5044044;28;20566;-37
2024/01/06 11:06:20;;;;;;;29.10;24.80;;;8.40;1.00;;;;;;5042462;28;20434;-38
2024/01/06 11:08:54;;;;;;;25.03;22.50;;;8.50;1.00;;;;;;5043639;28;20467;-38
2024/01/06 11:11:20;;;;;;;26.30;22.83;;;8.70;1.00;;;;;;5053279;28;20946;-39
2024/01/06 11:13:47;;;;;;;27.63;24.07;;;8.70;1.00;;;;;;5050635;28;20443;-37
2024/01/06 11:16:36;;;;;;;28.20;23.80;;;8.90;1.00;;;;;;5043316;28;20428;-38
2024/01/06 11:19:02;;;;;;;28.97;24.60;;;8.70;1.00;;;;;;5040827;28;20505;-38
2024/01/06 11:21:33;;;;;;;26.50;23.70;;;8.90;1.00;;;;;;5043668;28;20957;-37
2024/01/06 11:24:15;;;;;;;27.17;24.23;;;9.00;1.00;;;;;;5041097;28;20459;-41
2024/01/06 11:26:49;;;;;;;43.67;34.27;;;9.10;1.00;;;;;;5044518;28;21398;-36
2024/01/06 11:29:14;;;;;;;37.50;31.63;;;9.30;1.00;;;;;;5042152;28;20550;-36
2024/01/06 11:31:40;;;;;;;34.57;29.73;;;9.30;1.00;;;;;;5051511;28;20554;-37
2024/01/06 11:34:16;;;;;;;30.60;26.13;;;9.30;1.00;;;;;;5048306;28;20190;-36
2024/01/06 11:36:47;;;;;;;29.13;24.90;;;9.10;1.00;;;;;;5043367;28;20193;-36
2024/01/06 11:39:40;;;;;;;28.20;25.30;;;8.60;99.90;;;;;;5038263;28;21182;-37
2024/01/06 11:42:10;;;;;;;26.03;23.03;;;8.50;1.00;;;;;;5042128;28;20436;-37
2024/01/06 11:44:39;;;;;;;25.63;23.00;;;8.40;1.00;;;;;;5043812;28;20464;-38
2024/01/06 11:47:06;;;;;;;26.10;23.40;;;8.20;1.00;;;;;;5050877;28;20420;-38
2024/01/06 11:49:32;;;;;;;25.80;23.13;;;8.20;1.00;;;;;;5045340;28;20463;-37
2024/01/06 11:51:58;;;;;;;28.33;23.37;;;8.20;1.00;;;;;;5053707;28;20435;-36
2024/01/06 11:54:24;;;;;;;28.17;23.87;;;8.20;1.00;;;;;;5042342;28;20307;-37
2024/01/06 11:56:53;;;;;;;26.10;22.93;;;8.30;1.00;;;;;;5042089;28;20542;-37
2024/01/06 11:59:18;;;;;;;24.87;22.20;;;8.30;1.00;;;;;;5037009;28;20998;-36
2024/01/06 12:01:46;;;;;;;26.83;22.97;;;8.30;1.00;;;;;;5054915;28;20526;-38
2024/01/06 12:04:14;;;;;;;30.50;24.10;;;8.30;1.00;;;;;;5048955;28;20273;-36
2024/01/06 12:06:39;;;;;;;25.80;22.10;;;8.20;1.00;;;;;;5037452;28;20501;-37
2024/01/06 12:09:06;;;;;;;25.53;23.23;;;8.20;1.00;;;;;;5051374;28;20925;-37
2024/01/06 12:11:32;;;;;;;28.80;25.70;;;8.30;1.00;;;;;;5056200;28;20198;-37
2024/01/06 12:13:57;;;;;;;26.97;24.03;;;8.30;1.00;;;;;;5048612;28;20456;-38
2024/01/06 12:16:27;;;;;;;28.27;25.10;;;8.20;1.00;;;;;;5042719;28;20198;-36
2024/01/06 12:18:55;;;;;;;27.90;23.33;;;8.20;1.00;;;;;;5026589;28;20233;-37
2024/01/06 12:21:22;;;;;;;28.27;23.77;;;8.20;1.00;;;;;;5038668;28;20918;-37
2024/01/06 12:23:48;;;;;;;26.93;24.13;;;8.20;1.00;;;;;;5039812;28;20820;-36
2024/01/06 12:26:13;;;;;;;29.87;24.60;;;8.10;1.00;;;;;;5043107;28;20431;-36
2024/01/06 12:28:39;;;;;;;27.40;24.57;;;8.10;1.00;;;;;;5051331;28;20172;-37
2024/01/06 12:31:08;;;;;;;25.57;22.97;;;8.10;1.00;;;;;;5050683;28;20957;-36
2024/01/06 12:33:37;;;;;;;26.20;23.47;;;8.10;1.00;;;;;;5038145;28;20298;-36